Time;durP1;ratioP1;P1;durP2;ratioP2;P2;SDS_P1;SDS_P2;PMS_P1;PMS_P2;Temp;Humidity;BMP_temperature;BMP_pressure;BME280_temperature;BME280_humidity;BME280_pressure;Samples;Min_cycle;Max_cycle;Signal;HPM_P1;HPM_P2
2024/01/08 00:05:16;;;;;;;1.30;0.60;;;;;;;13.91;57.84;94793.81;6155531;23;20024;-26
2024/01/08 00:18:29;;;;;;;1.15;0.90;;;;;;;14.04;56.99;94794.13;6155308;23;20088;-26
2024/01/08 00:34:21;;;;;;;0.82;0.50;;;;;;;14.02;56.63;94794.59;6154766;23;20052;-26
2024/01/08 00:50:14;;;;;;;4.90;0.90;;;;;;;13.93;56.84;94791.34;6153891;23;20077;-27
2024/01/08 01:19:33;;;;;;;1.75;0.90;;;;;;;14.02;55.87;94819.13;6155171;23;20100;-27
2024/01/08 01:35:26;;;;;;;1.10;0.85;;;;;;;14.01;55.46;94836.72;6156432;23;20036;-26
2024/01/08 01:51:19;;;;;;;2.63;1.13;;;;;;;14.07;54.68;94833.28;6155958;23;20037;-26
2024/01/08 02:04:33;;;;;;;1.83;0.90;;;;;;;13.91;55.15;94827.25;6156616;23;20025;-27
2024/01/08 02:20:24;;;;;;;2.58;0.75;;;;;;;13.74;55.43;94820.94;6156238;23;20024;-27
2024/01/08 02:36:16;;;;;;;2.72;0.75;;;;;;;13.85;54.64;94812.09;6155865;23;20056;-27
2024/01/08 03:06:00;;;;;;;3.17;0.47;;;;;;;13.58;54.68;94827.03;6155880;23;20016;-26
2024/01/08 03:21:52;;;;;;;0.55;0.40;;;;;;;13.82;54.22;94819.28;6155656;23;20076;-26
2024/01/08 03:51:11;;;;;;;0.75;0.50;;;;;;;13.55;55.10;94855.25;6154483;23;20083;-27
2024/01/08 04:07:04;;;;;;;0.47;0.30;;;;;;;13.65;54.22;94849.13;6155545;23;20450;-26
2024/01/08 04:22:57;;;;;;;0.75;0.30;;;;;;;13.61;54.49;94869.63;6155152;23;20021;-26
2024/01/08 04:36:17;;;;;;;1.80;0.60;;;;;;;13.62;54.43;94860.22;6155167;23;20068;-26
2024/01/08 04:52:10;;;;;;;2.22;1.08;;;;;;;13.52;53.92;94877.97;6153985;23;20029;-27
2024/01/08 05:08:03;;;;;;;1.27;0.60;;;;;;;13.64;53.29;94880.31;6157399;23;20016;-27
2024/01/08 05:23:56;;;;;;;1.20;0.50;;;;;;;13.46;53.60;94912.59;6156610;23;20040;-26
2024/01/08 05:37:03;;;;;;;2.90;0.80;;;;;;;13.66;53.49;94926.16;6156822;23;20016;-26
2024/01/08 05:39:29;;;;;;;3.10;0.70;;;;;;;13.75;53.39;94923.25;6155995;23;20005;-25
2024/01/08 05:52:25;;;;;;;2.10;0.50;;;;;;;13.57;53.48;94948.13;6155620;23;20028;-26
2024/01/08 06:08:18;;;;;;;3.53;1.17;;;;;;;13.63;53.50;94976.13;6127135;23;20017;-26
2024/01/08 06:24:11;;;;;;;3.78;1.20;;;;;;;13.43;53.93;94987.09;6126517;23;20065;-26
2024/01/08 06:37:38;;;;;;;1.77;0.70;;;;;;;13.65;52.75;94996.22;6126999;23;20021;-26
2024/01/08 06:53:31;;;;;;;3.35;1.08;;;;;;;13.63;53.36;95014.28;6140834;23;20028;-26
2024/01/08 06:55:56;;;;;;;4.03;0.90;;;;;;;13.49;53.39;95020.56;6156124;23;20013;-26
2024/01/08 07:08:27;;;;;;;2.80;0.90;;;;;;;13.49;53.30;95042.34;6156243;23;20020;-26
2024/01/08 07:24:18;;;;;;;4.90;0.93;;;;;;;13.57;52.73;95066.00;6155751;23;20016;-27
2024/01/08 07:40:11;;;;;;;2.63;1.13;;;;;;;13.54;52.54;95080.56;6155465;23;20087;-27
2024/01/08 08:10:51;;;;;;;2.92;0.90;;;;;;;13.54;51.95;95129.59;6125897;23;20153;-26
2024/01/08 08:23:53;;;;;;;1.27;0.80;;;;;;;13.38;52.02;95138.28;6125984;23;20336;-26
2024/01/08 08:39:46;;;;;;;2.47;1.30;;;;;;;13.52;52.08;95162.00;6126092;23;20021;-26
2024/01/08 08:55:38;;;;;;;2.20;1.20;;;;;;;13.66;52.18;95193.13;6152283;23;20032;-26
2024/01/08 09:11:32;;;;;;;3.65;1.10;;;;;;;13.49;52.43;95205.75;6156955;23;20044;-26
2024/01/08 09:24:36;;;;;;;2.88;1.67;;;;;;;13.56;52.59;95213.56;6156777;23;20012;-26
2024/01/08 09:40:28;;;;;;;3.65;1.70;;;;;;;13.72;52.25;95220.44;6156694;23;20505;-26
2024/01/08 09:42:59;;;;;;;4.25;1.75;;;;;;;13.51;52.61;95225.84;6157258;23;20084;-26
2024/01/08 09:55:32;;;;;;;4.57;1.45;;;;;;;13.61;52.48;95246.31;6155187;23;20080;-26
2024/01/08 10:11:26;;;;;;;3.78;1.25;;;;;;;13.74;52.35;95247.94;6156576;23;20078;-27
2024/01/08 10:27:18;;;;;;;2.00;1.20;;;;;;;13.57;53.34;95250.47;6156070;23;20100;-26
2024/01/08 10:40:25;;;;;;;4.95;1.67;;;;;;;13.73;52.83;95258.09;6156392;23;20017;-26
2024/01/08 10:56:20;;;;;;;2.17;0.98;;;;;;;13.54;53.13;95265.03;6154818;23;20060;-26
2024/01/08 10:58:54;;;;;;;1.90;1.13;;;;;;;13.58;52.96;95260.13;6156062;23;20305;-26
2024/01/08 11:11:26;;;;;;;3.15;0.98;;;;;;;13.64;52.70;95269.13;6155947;23;20016;-26
2024/01/08 11:27:22;;;;;;;6.15;1.33;;;;;;;13.36;52.29;95254.34;6155493;23;20021;-26
2024/01/08 11:56:41;;;;;;;4.50;1.20;;;;;;;13.72;51.48;95286.59;6154261;23;20478;-27
2024/01/08 12:12:34;;;;;;;4.90;2.03;;;;;;;13.66;51.38;95313.00;6155491;23;20064;-27
2024/01/08 12:28:32;;;;;;;4.40;2.50;;;;;;;13.85;50.89;95308.06;6155450;23;20016;-26
2024/01/08 12:41:46;;;;;;;4.35;2.30;;;;;;;13.79;50.34;95321.63;6155494;23;20132;-26
2024/01/08 12:57:38;;;;;;;5.90;2.88;;;;;;;13.73;50.70;95334.41;6154187;23;20083;-26
2024/01/08 13:13:30;;;;;;;6.15;3.95;;;;;;;13.75;51.04;95337.41;6154930;23;20338;-26
2024/01/08 13:29:22;;;;;;;4.25;1.60;;;;;;;13.67;51.29;95352.66;6156767;23;20348;-26
2024/01/08 13:42:29;;;;;;;3.72;1.55;;;;;;;13.71;51.19;95341.56;6157214;23;20453;-26
2024/01/08 13:58:21;;;;;;;5.95;1.52;;;;;;;13.77;50.35;95340.41;6155370;23;20072;-27
2024/01/08 14:14:13;;;;;;;16.65;10.50;;;;;;;13.63;50.56;95346.63;6156339;23;20064;-27
2024/01/08 14:30:06;;;;;;;14.60;6.60;;;;;;;13.60;50.79;95372.84;6155963;23;20087;-26
2024/01/08 14:43:14;;;;;;;7.45;2.90;;;;;;;13.68;50.72;95389.56;6156408;23;20343;-26
2024/01/08 14:59:06;;;;;;;9.18;3.42;;;;;;;13.56;51.14;95409.69;6152047;23;20029;-26
2024/01/08 15:14:59;;;;;;;5.88;2.00;;;;;;;13.56;51.01;95424.06;6155629;23;20327;-26
2024/01/08 15:17:24;;;;;;;8.38;3.95;;;;;;;13.44;51.64;95429.78;6156048;23;20005;-26
2024/01/08 15:19:51;;;;;;;6.20;3.00;;;;;;;13.29;51.79;95438.69;6155801;23;20052;-26
2024/01/08 15:29:25;;;;;;;7.80;4.30;;;;;;;13.32;51.74;95441.69;6165621;23;20028;-27
2024/01/08 15:31:51;;;;;;;7.93;4.72;;;;;;;13.57;51.00;95441.91;6155879;23;20006;-26
2024/01/08 15:44:21;;;;;;;7.82;3.53;;;;;;;13.52;50.26;95444.50;6155349;23;20335;-27
2024/01/08 16:00:14;;;;;;;4.85;2.65;;;;;;;13.35;51.32;95463.31;6154107;23;20028;-26
2024/01/08 16:16:06;;;;;;;5.60;2.65;;;;;;;13.28;50.44;95494.34;6154976;23;20355;-26
2024/01/08 16:29:24;;;;;;;5.38;2.00;;;;;;;13.21;50.76;95551.91;6155668;23;20040;-26
2024/01/08 16:45:16;;;;;;;5.93;2.10;;;;;;;13.35;50.63;95579.66;6155035;23;20218;-26
2024/01/08 16:47:41;;;;;;;3.05;1.83;;;;;;;13.32;50.71;95577.84;6155697;23;20009;-26
2024/01/08 17:00:12;;;;;;;3.95;1.75;;;;;;;13.18;51.03;95595.63;6153934;23;20032;-27
2024/01/08 17:16:05;;;;;;;4.40;2.10;;;;;;;13.43;50.59;95591.69;6156729;23;20105;-26
2024/01/08 17:32:00;;;;;;;10.52;4.60;;;;;;;13.13;51.06;95599.69;6157038;23;20059;-26
2024/01/08 17:45:21;;;;;;;7.50;3.38;;;;;;;12.92;51.38;95622.50;6156567;23;20490;-27
2024/01/08 18:02:04;;;;;;;5.13;2.63;;;;;;;12.92;50.57;95625.97;6155456;23;20510;-26
2024/01/08 18:31:57;;;;;;;4.68;3.22;;;;;;;12.89;49.83;95715.94;6156538;23;20466;-26
2024/01/08 18:34:23;;;;;;;6.25;3.00;;;;;;;13.09;49.29;95710.75;6156459;23;20020;-26
2024/01/08 18:47:30;;;;;;;8.18;4.20;;;;;;;12.75;48.74;95716.56;6155872;23;20227;-26
2024/01/08 19:18:11;;;;;;;12.48;5.78;;;;;;;12.79;47.71;95733.50;6156361;23;20048;-27
2024/01/08 19:31:30;;;;;;;8.55;3.40;;;;;;;12.54;47.29;95745.50;6155724;23;20019;-27
2024/01/08 19:33:56;;;;;;;4.07;2.40;;;;;;;12.79;47.01;95758.00;6155671;23;20002;-26
2024/01/08 19:46:42;;;;;;;18.15;9.18;;;;;;;12.64;46.53;95789.75;6155278;23;20016;-27
2024/01/08 20:02:34;;;;;;;7.90;3.97;;;;;;;12.59;45.80;95807.44;6153748;23;20040;-26
2024/01/08 20:18:27;;;;;;;5.72;2.20;;;;;;;12.73;45.33;95830.56;6155610;23;20016;-26
2024/01/08 20:34:19;;;;;;;6.20;3.13;;;;;;;12.77;44.87;95867.28;6154978;23;20335;-27
2024/01/08 20:47:23;;;;;;;6.13;3.55;;;;;;;12.79;44.76;95869.56;6155504;23;20068;-27
2024/01/08 21:03:15;;;;;;;5.78;3.90;;;;;;;12.65;45.22;95859.28;6153936;23;20113;-27
2024/01/08 21:19:07;;;;;;;4.38;2.20;;;;;;;12.84;44.30;95879.84;6154593;23;20041;-26
2024/01/08 21:34:59;;;;;;;4.57;2.38;;;;;;;12.69;44.32;95904.19;6155071;23;20016;-26
2024/01/08 21:48:08;;;;;;;7.37;3.00;;;;;;;12.48;44.54;95900.38;6156681;23;20037;-26
2024/01/08 22:04:01;;;;;;;8.18;4.18;;;;;;;12.58;44.76;95903.88;6155209;23;20080;-27
2024/01/08 22:19:54;;;;;;;6.13;2.75;;;;;;;12.81;44.43;95927.00;6156126;23;20093;-27
2024/01/08 22:35:47;;;;;;;6.32;3.45;;;;;;;12.71;44.14;95947.25;6156225;23;20104;-26
2024/01/08 22:48:47;;;;;;;6.75;2.70;;;;;;;12.75;43.85;95958.72;6156278;23;20017;-26
2024/01/08 23:04:41;;;;;;;4.60;2.33;;;;;;;12.57;44.08;95935.75;6154515;23;20091;-26
2024/01/08 23:07:07;;;;;;;5.80;2.40;;;;;;;12.42;44.38;95931.31;6156226;23;20443;-27
2024/01/08 23:19:37;;;;;;;4.53;2.38;;;;;;;12.41;44.37;95949.59;6155694;23;20056;-27
2024/01/08 23:35:30;;;;;;;3.08;1.90;;;;;;;12.50;44.20;95935.25;6155508;23;20044;-26
2024/01/08 23:51:23;;;;;;;4.22;1.88;;;;;;;12.52;44.31;95960.06;6155418;23;20105;-26
